Time;durP1;ratioP1;P1;durP2;ratioP2;P2;SDS_P1;SDS_P2;PMS_P1;PMS_P2;Temp;Humidity;BMP_temperature;BMP_pressure;BME280_temperature;BME280_humidity;BME280_pressure;Samples;Min_cycle;Max_cycle;Signal;HPM_P1;HPM_P2
2023/01/31 00:00:37;;;;;;;;;;;1.40;99.90;;;;;;4998498;28;19913;-78
2023/01/31 00:03:08;;;;;;;;;;;1.40;99.90;;;;;;4998025;28;19964;-78
2023/01/31 00:05:44;;;;;;;;;;;1.40;99.90;;;;;;4999474;28;19906;-79
2023/01/31 00:08:14;;;;;;;;;;;0.80;99.90;;;;;;4999804;28;19918;-79
2023/01/31 00:10:40;;;;;;;;;;;0.50;99.90;;;;;;5017239;28;20516;-78
2023/01/31 00:13:15;;;;;;;;;;;1.40;99.90;;;;;;5053602;23;19970;-78
2023/01/31 00:15:41;;;;;;;;;;;1.10;99.90;;;;;;5040188;28;19909;-78
2023/01/31 00:18:09;;;;;;;;;;;1.50;99.90;;;;;;5053118;28;19988;-78
2023/01/31 00:20:43;;;;;;;;;;;1.40;99.90;;;;;;5050364;28;20552;-78
2023/01/31 00:23:09;;;;;;;;;;;-0.20;99.90;;;;;;5055226;28;19911;-79
2023/01/31 00:25:42;;;;;;;;;;;2.70;99.90;;;;;;5012061;28;19916;-79
2023/01/31 00:28:11;;;;;;;;;;;1.10;99.90;;;;;;5021893;22;19960;-78
2023/01/31 00:30:42;;;;;;;;;;;-0.80;99.90;;;;;;5017908;28;19955;-78
2023/01/31 00:33:13;;;;;;;;;;;1.30;99.90;;;;;;5036264;28;19916;-78
2023/01/31 00:35:41;;;;;;;;;;;1.20;99.90;;;;;;5016851;28;19913;-79
2023/01/31 00:38:07;;;;;;;;;;;1.40;99.90;;;;;;5015290;28;20596;-78
2023/01/31 00:40:33;;;;;;;;;;;-0.90;99.90;;;;;;5019040;28;19905;-78
2023/01/31 00:43:04;;;;;;;;;;;1.00;99.90;;;;;;5020037;28;19916;-78
2023/01/31 00:45:38;;;;;;;;;;;1.70;99.90;;;;;;5018833;28;20114;-78
2023/01/31 00:48:09;;;;;;;;;;;1.70;99.90;;;;;;5037625;28;19917;-78
2023/01/31 00:50:34;;;;;;;;;;;1.20;99.90;;;;;;5019644;28;19905;-78
2023/01/31 00:53:01;;;;;;;;;;;1.50;99.90;;;;;;5036008;28;19932;-78
2023/01/31 00:55:32;;;;;;;;;;;1.60;99.90;;;;;;5018026;28;19936;-78
2023/01/31 00:58:03;;;;;;;;;;;1.30;99.90;;;;;;5019557;28;19941;-78
2023/01/31 01:00:42;;;;;;;;;;;0.10;99.90;;;;;;5058884;22;19925;-78
2023/01/31 01:03:10;;;;;;;;;;;-0.60;99.90;;;;;;5017693;28;19905;-78
2023/01/31 01:05:45;;;;;;;;;;;0.40;99.90;;;;;;5016520;28;19909;-78
2023/01/31 01:08:23;;;;;;;;;;;-1.20;99.90;;;;;;5016555;28;19917;-78
2023/01/31 01:10:49;;;;;;;;;;;1.20;99.90;;;;;;5017356;28;19915;-78
2023/01/31 01:13:24;;;;;;;;;;;3.80;99.90;;;;;;5013411;28;19949;-78
2023/01/31 01:15:51;;;;;;;;;;;1.10;99.90;;;;;;5035128;28;19988;-78
2023/01/31 01:18:24;;;;;;;;;;;-0.60;99.90;;;;;;5016713;28;19953;-78
2023/01/31 01:20:51;;;;;;;;;;;1.40;99.90;;;;;;5036091;28;19909;-78
2023/01/31 01:23:35;;;;;;;;;;;1.10;99.90;;;;;;5033295;28;19912;-78
2023/01/31 01:26:17;;;;;;;;;;;0.30;99.90;;;;;;5034125;28;20000;-80
2023/01/31 01:28:51;;;;;;;;;;;2.50;99.90;;;;;;5016389;28;19928;-79
2023/01/31 01:31:20;;;;;;;;;;;1.10;99.90;;;;;;5024114;28;19980;-78
2023/01/31 01:33:54;;;;;;;;;;;1.40;99.90;;;;;;5020996;28;19923;-78
2023/01/31 01:36:20;;;;;;;;;;;1.00;99.90;;;;;;5021156;28;19918;-78
2023/01/31 01:38:48;;;;;;;;;;;1.50;99.90;;;;;;5022238;28;19905;-78
2023/01/31 01:41:17;;;;;;;;;;;1.00;99.90;;;;;;5020551;28;20007;-79
2023/01/31 01:43:57;;;;;;;;;;;-0.70;99.90;;;;;;5038253;28;20024;-78
2023/01/31 01:46:52;;;;;;;;;;;-0.20;99.90;;;;;;5038105;28;19905;-78
2023/01/31 01:49:25;;;;;;;;;;;0.70;99.90;;;;;;5015794;28;19920;-78
2023/01/31 01:51:56;;;;;;;;;;;0.80;99.90;;;;;;5019893;28;19920;-78
2023/01/31 01:54:49;;;;;;;;;;;0.80;99.90;;;;;;5036776;28;19909;-78
2023/01/31 01:57:25;;;;;;;;;;;0.80;99.90;;;;;;5022369;28;19937;-78
2023/01/31 02:00:22;;;;;;;;;;;0.80;99.90;;;;;;5040185;28;19921;-78
2023/01/31 02:03:04;;;;;;;;;;;0.90;99.90;;;;;;4940298;28;19915;-78
2023/01/31 02:05:33;;;;;;;;;;;1.00;99.90;;;;;;4939421;29;19907;-78
2023/01/31 02:08:10;;;;;;;;;;;1.40;99.90;;;;;;4908717;29;19926;-78
2023/01/31 02:10:46;;;;;;;;;;;0.40;99.90;;;;;;4923055;29;19946;-78
2023/01/31 02:13:23;;;;;;;;;;;1.10;99.90;;;;;;4923487;29;20567;-78
2023/01/31 02:16:02;;;;;;;;;;;0.90;99.90;;;;;;4923556;29;19930;-78
2023/01/31 02:18:35;;;;;;;;;;;0.00;99.90;;;;;;4924991;29;19954;-78
2023/01/31 02:21:20;;;;;;;;;;;1.00;99.90;;;;;;4923445;29;20287;-77
2023/01/31 02:24:21;;;;;;;;;;;0.80;99.90;;;;;;4939284;29;19907;-78
2023/01/31 02:27:12;;;;;;;;;;;-2.00;99.90;;;;;;4918468;29;19915;-78
2023/01/31 02:29:58;;;;;;;;;;;1.80;99.90;;;;;;4902399;29;20009;-78
2023/01/31 02:32:30;;;;;;;;;;;0.30;99.90;;;;;;4902431;29;19924;-78
2023/01/31 02:35:18;;;;;;;;;;;-0.60;99.90;;;;;;4902862;29;19907;-78
2023/01/31 02:38:16;;;;;;;;;;;0.30;99.90;;;;;;4865592;29;19923;-78
2023/01/31 02:41:17;;;;;;;;;;;0.00;99.90;;;;;;4939060;29;19925;-78
2023/01/31 02:46:43;;;;;;;;;;;0.60;99.90;;;;;;4900387;29;20015;-78
2023/01/31 02:49:35;;;;;;;;;;;0.90;99.90;;;;;;4900745;29;19912;-78
2023/01/31 02:52:17;;;;;;;;;;;1.40;99.90;;;;;;4881721;29;19938;-78
2023/01/31 02:57:46;;;;;;;;;;;-1.10;99.90;;;;;;4898100;29;19923;-78
2023/01/31 03:00:13;;;;;;;;;;;0.70;99.90;;;;;;4896721;29;19927;-78
2023/01/31 03:02:39;;;;;;;;;;;0.70;99.90;;;;;;4880564;29;19918;-78
2023/01/31 03:05:07;;;;;;;;;;;0.50;99.90;;;;;;4904394;29;19950;-77
2023/01/31 03:07:37;;;;;;;;;;;-0.70;99.90;;;;;;4918121;29;19919;-78
2023/01/31 03:10:07;;;;;;;;;;;0.40;99.90;;;;;;4917184;29;20164;-78
2023/01/31 03:12:52;;;;;;;;;;;0.60;99.90;;;;;;4939921;28;20001;-78
2023/01/31 03:15:24;;;;;;;;;;;0.60;99.90;;;;;;5008336;28;19905;-78
2023/01/31 03:18:13;;;;;;;;;;;0.70;99.90;;;;;;5021203;28;19928;-78
2023/01/31 03:20:43;;;;;;;;;;;-0.40;99.90;;;;;;4918172;29;19913;-78
2023/01/31 03:23:30;;;;;;;;;;;0.50;99.90;;;;;;4903568;29;19951;-78
2023/01/31 03:25:59;;;;;;;;;;;0.20;99.90;;;;;;4918323;29;19974;-78
2023/01/31 03:28:53;;;;;;;;;;;-2.00;99.90;;;;;;4918680;29;20600;-78
2023/01/31 03:31:25;;;;;;;;;;;0.50;99.90;;;;;;4919202;29;19941;-78
2023/01/31 03:33:58;;;;;;;;;;;0.60;99.90;;;;;;4919900;29;20644;-78
2023/01/31 03:36:44;;;;;;;;;;;0.70;99.90;;;;;;4899496;29;20010;-78
2023/01/31 03:39:15;;;;;;;;;;;0.70;99.90;;;;;;4898608;29;19974;-78
2023/01/31 03:41:47;;;;;;;;;;;0.70;99.90;;;;;;4912732;29;19942;-77
2023/01/31 03:44:33;;;;;;;;;;;0.70;99.90;;;;;;4912196;29;19915;-77
2023/01/31 03:47:19;;;;;;;;;;;0.40;99.90;;;;;;4912607;29;19919;-77
2023/01/31 03:49:45;;;;;;;;;;;0.40;99.90;;;;;;4912882;29;19948;-78
2023/01/31 03:52:12;;;;;;;;;;;0.40;99.90;;;;;;4899007;29;19911;-77
2023/01/31 03:54:45;;;;;;;;;;;0.40;99.90;;;;;;4898033;29;19914;-77
2023/01/31 03:57:14;;;;;;;;;;;0.40;99.90;;;;;;4932238;28;19906;-77
2023/01/31 03:59:42;;;;;;;;;;;0.50;99.90;;;;;;5033828;28;19925;-77
2023/01/31 04:02:09;;;;;;;;;;;0.50;99.90;;;;;;5031668;28;19905;-78
2023/01/31 04:04:38;;;;;;;;;;;0.40;99.90;;;;;;5032924;28;19916;-77
2023/01/31 04:07:07;;;;;;;;;;;0.40;99.90;;;;;;5014860;28;20122;-78
2023/01/31 04:09:33;;;;;;;;;;;2.40;99.90;;;;;;5017012;28;19909;-78
2023/01/31 04:12:00;;;;;;;;;;;0.40;99.90;;;;;;5016140;28;20478;-78
2023/01/31 04:14:26;;;;;;;;;;;0.40;99.90;;;;;;5031448;28;19909;-77
2023/01/31 04:16:51;;;;;;;;;;;0.40;99.90;;;;;;5030263;28;19919;-78
2023/01/31 04:19:17;;;;;;;;;;;0.40;99.90;;;;;;5013194;28;19916;-78
2023/01/31 04:21:43;;;;;;;;;;;0.40;99.90;;;;;;5034781;28;19913;-77
2023/01/31 04:24:09;;;;;;;;;;;0.40;99.90;;;;;;5017971;28;19905;-77
2023/01/31 04:26:35;;;;;;;;;;;0.40;99.90;;;;;;5035394;28;19933;-77
2023/01/31 04:29:00;;;;;;;;;;;0.70;99.90;;;;;;5035462;28;19917;-78
2023/01/31 04:31:26;;;;;;;;;;;0.30;99.90;;;;;;5013183;28;19905;-78
2023/01/31 04:33:51;;;;;;;;;;;-0.80;99.90;;;;;;5014489;28;19913;-78
2023/01/31 04:36:17;;;;;;;;;;;-0.20;99.90;;;;;;5032812;28;20606;-78
2023/01/31 04:38:43;;;;;;;;;;;0.20;99.90;;;;;;5042978;28;19909;-77
2023/01/31 04:41:08;;;;;;;;;;;0.30;99.90;;;;;;5012753;28;19910;-77
2023/01/31 04:43:34;;;;;;;;;;;0.30;99.90;;;;;;5012937;28;19945;-78
2023/01/31 04:46:13;;;;;;;;;;;0.30;99.90;;;;;;5013497;28;19963;-77
2023/01/31 04:48:40;;;;;;;;;;;0.20;99.90;;;;;;5012565;28;19917;-77
2023/01/31 04:51:10;;;;;;;;;;;0.40;99.90;;;;;;5030960;28;19978;-77
2023/01/31 04:53:39;;;;;;;;;;;0.40;99.90;;;;;;5012579;28;19916;-78
2023/01/31 04:56:12;;;;;;;;;;;0.20;99.90;;;;;;5012909;28;19936;-77
2023/01/31 04:58:40;;;;;;;;;;;-1.60;99.90;;;;;;5030664;28;20114;-77
2023/01/31 05:01:08;;;;;;;;;;;0.20;99.90;;;;;;5017430;28;19917;-78
2023/01/31 05:03:39;;;;;;;;;;;0.30;99.90;;;;;;5019810;28;19905;-78
2023/01/31 05:06:11;;;;;;;;;;;0.30;99.90;;;;;;5037155;28;19909;-78
2023/01/31 05:08:36;;;;;;;;;;;0.30;99.90;;;;;;5037487;28;19913;-78
2023/01/31 05:11:05;;;;;;;;;;;-2.00;99.90;;;;;;5019951;28;19920;-78
2023/01/31 05:13:31;;;;;;;;;;;-0.30;99.90;;;;;;5020398;28;19909;-78
2023/01/31 05:15:57;;;;;;;;;;;0.40;99.90;;;;;;5020725;28;19940;-78
2023/01/31 05:18:25;;;;;;;;;;;0.40;99.90;;;;;;5024336;28;20310;-77
2023/01/31 05:20:51;;;;;;;;;;;0.40;99.90;;;;;;5023918;28;19917;-77
2023/01/31 05:23:24;;;;;;;;;;;0.40;99.90;;;;;;5042006;28;20462;-79
2023/01/31 05:25:53;;;;;;;;;;;-2.00;99.90;;;;;;4999620;28;19910;-80
2023/01/31 05:28:18;;;;;;;;;;;2.10;99.90;;;;;;4982952;28;19920;-77
2023/01/31 05:30:56;;;;;;;;;;;0.70;99.90;;;;;;5000377;28;19918;-82
2023/01/31 05:33:50;;;;;;;;;;;0.70;99.90;;;;;;5003502;28;19912;-82
2023/01/31 05:39:04;;;;;;;;;;;-0.20;99.90;;;;;;4986265;28;19925;-79
2023/01/31 05:41:35;;;;;;;;;;;0.30;99.90;;;;;;5005371;28;19933;-81
2023/01/31 05:44:06;;;;;;;;;;;1.20;99.90;;;;;;5001365;28;19996;-77
2023/01/31 05:46:39;;;;;;;;;;;0.50;99.90;;;;;;5001489;28;19918;-77
2023/01/31 05:49:05;;;;;;;;;;;0.40;99.90;;;;;;5001595;28;19933;-78
2023/01/31 05:51:34;;;;;;;;;;;0.40;99.90;;;;;;5041354;28;19917;-78
2023/01/31 05:54:02;;;;;;;;;;;2.70;99.90;;;;;;5021596;28;19908;-79
2023/01/31 05:56:30;;;;;;;;;;;0.50;99.90;;;;;;5034616;28;19916;-78
2023/01/31 05:58:55;;;;;;;;;;;0.50;99.90;;;;;;5037414;28;20533;-77
2023/01/31 06:01:30;;;;;;;;;;;0.50;99.90;;;;;;5034224;28;19978;-77
2023/01/31 06:03:56;;;;;;;;;;;0.50;99.90;;;;;;5018348;28;20580;-78
2023/01/31 06:06:21;;;;;;;;;;;0.30;99.90;;;;;;5017141;28;20112;-78
2023/01/31 06:08:47;;;;;;;;;;;0.80;99.90;;;;;;5034672;28;19956;-78
2023/01/31 06:11:13;;;;;;;;;;;0.60;99.90;;;;;;5037431;28;19906;-78
2023/01/31 06:13:39;;;;;;;;;;;1.00;99.90;;;;;;5001824;28;19996;-78
2023/01/31 06:16:05;;;;;;;;;;;-2.10;99.90;;;;;;5016403;28;19928;-78
2023/01/31 06:18:33;;;;;;;;;;;0.50;99.90;;;;;;5035031;28;19909;-78
2023/01/31 06:20:59;;;;;;;;;;;0.60;99.90;;;;;;5019432;28;19925;-77
2023/01/31 06:23:24;;;;;;;;;;;0.60;99.90;;;;;;5018375;28;19906;-79
2023/01/31 06:25:50;;;;;;;;;;;0.50;99.90;;;;;;5036264;28;19960;-78
2023/01/31 06:28:16;;;;;;;;;;;0.50;99.90;;;;;;5018747;28;19918;-77
2023/01/31 06:30:42;;;;;;;;;;;0.60;99.90;;;;;;5018846;28;19909;-78
2023/01/31 06:33:08;;;;;;;;;;;0.50;99.90;;;;;;5019226;28;19928;-78
2023/01/31 06:35:36;;;;;;;;;;;0.50;99.90;;;;;;5019711;28;19905;-78
2023/01/31 06:38:02;;;;;;;;;;;0.50;99.90;;;;;;5036514;28;20000;-77
2023/01/31 06:40:29;;;;;;;;;;;0.60;99.90;;;;;;5019105;28;19932;-79
2023/01/31 06:42:58;;;;;;;;;;;0.60;99.90;;;;;;5037457;28;19917;-78
2023/01/31 06:45:23;;;;;;;;;;;0.70;99.90;;;;;;5036906;28;20039;-77
2023/01/31 06:47:49;;;;;;;;;;;0.30;99.90;;;;;;5019686;28;19949;-78
2023/01/31 06:50:14;;;;;;;;;;;0.70;99.90;;;;;;5019938;28;19920;-78
2023/01/31 06:52:40;;;;;;;;;;;0.80;99.90;;;;;;5038244;28;19985;-77
2023/01/31 06:55:06;;;;;;;;;;;0.80;99.90;;;;;;5017891;28;19923;-77
2023/01/31 06:57:32;;;;;;;;;;;0.80;99.90;;;;;;5018965;28;19905;-78
2023/01/31 06:59:57;;;;;;;;;;;0.80;99.90;;;;;;5017761;28;19921;-78
2023/01/31 07:02:28;;;;;;;;;;;0.80;99.90;;;;;;5037542;28;19913;-78
2023/01/31 07:04:56;;;;;;;;;;;0.10;99.90;;;;;;5021615;28;19905;-78
2023/01/31 07:07:26;;;;;;;;;;;0.90;99.90;;;;;;5024176;28;19936;-78
2023/01/31 07:09:55;;;;;;;;;;;0.70;99.90;;;;;;5041227;28;19944;-78
2023/01/31 07:12:21;;;;;;;;;;;0.30;99.90;;;;;;5023138;28;19909;-78
2023/01/31 07:14:49;;;;;;;;;;;1.90;99.90;;;;;;5039143;28;19916;-78
2023/01/31 07:17:19;;;;;;;;;;;1.10;99.90;;;;;;5039952;28;19969;-78
2023/01/31 07:19:46;;;;;;;;;;;3.60;99.90;;;;;;5037798;28;19909;-78
2023/01/31 07:22:14;;;;;;;;;;;-0.30;99.90;;;;;;5037548;28;19913;-78
2023/01/31 07:24:43;;;;;;;;;;;0.90;99.90;;;;;;5018506;28;19909;-78
2023/01/31 07:27:10;;;;;;;;;;;1.80;99.90;;;;;;5017701;28;19917;-78
2023/01/31 07:29:36;;;;;;;;;;;0.90;99.90;;;;;;5036754;28;19909;-78
2023/01/31 07:32:02;;;;;;;;;;;0.90;99.90;;;;;;5018243;28;19913;-78
2023/01/31 07:34:27;;;;;;;;;;;0.90;99.90;;;;;;5035187;28;19910;-78
2023/01/31 07:36:56;;;;;;;;;;;0.90;99.90;;;;;;5033715;28;19909;-78
2023/01/31 07:39:22;;;;;;;;;;;0.90;99.90;;;;;;5036019;28;20000;-78
2023/01/31 07:41:48;;;;;;;;;;;0.90;99.90;;;;;;5017923;28;20608;-78
2023/01/31 07:44:14;;;;;;;;;;;0.90;99.90;;;;;;5040875;28;19909;-78
2023/01/31 07:46:39;;;;;;;;;;;1.00;99.90;;;;;;5020445;28;19933;-78
2023/01/31 07:49:05;;;;;;;;;;;1.00;99.90;;;;;;5036682;28;19909;-78
2023/01/31 07:51:31;;;;;;;;;;;1.10;99.90;;;;;;5032702;28;19913;-77
2023/01/31 07:53:57;;;;;;;;;;;1.10;99.90;;;;;;5032665;28;20004;-78
2023/01/31 07:56:25;;;;;;;;;;;1.20;99.90;;;;;;5033064;28;19920;-77
2023/01/31 07:59:00;;;;;;;;;;;0.10;99.90;;;;;;5015762;28;19916;-78
2023/01/31 08:04:14;;;;;;;;;;;-0.40;99.90;;;;;;5032757;28;20517;-79
2023/01/31 08:06:43;;;;;;;;;;;-0.30;99.90;;;;;;5031595;28;20552;-78
2023/01/31 08:09:14;;;;;;;;;;;1.50;99.90;;;;;;5035686;28;19905;-78
2023/01/31 08:11:45;;;;;;;;;;;1.40;99.90;;;;;;5016205;28;19909;-77
2023/01/31 08:14:22;;;;;;;;;;;4.50;99.90;;;;;;5033941;28;19909;-79
2023/01/31 08:16:48;;;;;;;;;;;1.30;99.90;;;;;;5032587;28;19905;-77
2023/01/31 08:19:13;;;;;;;;;;;1.30;99.90;;;;;;5015678;28;20004;-77
2023/01/31 08:21:41;;;;;;;;;;;1.30;99.90;;;;;;5033680;28;20574;-78
2023/01/31 08:24:11;;;;;;;;;;;1.30;99.90;;;;;;5033490;28;19909;-78
2023/01/31 08:26:45;;;;;;;;;;;1.30;99.90;;;;;;5014811;28;19916;-77
2023/01/31 08:29:28;;;;;;;;;;;0.70;99.90;;;;;;4991060;28;20508;-78
2023/01/31 08:31:58;;;;;;;;;;;1.40;99.90;;;;;;4992865;28;19906;-78
2023/01/31 08:34:24;;;;;;;;;;;1.50;99.90;;;;;;4992696;28;19905;-78
2023/01/31 08:36:49;;;;;;;;;;;1.50;99.90;;;;;;4989061;28;19910;-77
2023/01/31 08:39:15;;;;;;;;;;;1.40;99.90;;;;;;4989894;28;19918;-77
2023/01/31 08:41:41;;;;;;;;;;;1.50;99.90;;;;;;4990652;28;19906;-78
2023/01/31 08:44:09;;;;;;;;;;;1.50;99.90;;;;;;4992779;28;20633;-78
2023/01/31 08:46:35;;;;;;;;;;;0.50;99.90;;;;;;4990311;28;19945;-77
2023/01/31 08:49:03;;;;;;;;;;;-0.80;99.90;;;;;;4990749;28;19910;-78
2023/01/31 08:51:32;;;;;;;;;;;1.80;99.90;;;;;;4977240;28;19996;-78
2023/01/31 08:53:59;;;;;;;;;;;-0.30;99.90;;;;;;4975766;28;20040;-77
2023/01/31 08:56:28;;;;;;;;;;;2.10;99.90;;;;;;4973730;28;19910;-78
2023/01/31 08:59:11;;;;;;;;;;;1.30;99.90;;;;;;4989714;28;19910;-78
2023/01/31 09:01:42;;;;;;;;;;;2.20;99.90;;;;;;4986276;28;20166;-77
2023/01/31 09:04:13;;;;;;;;;;;2.40;99.90;;;;;;4970218;28;19953;-77
2023/01/31 09:06:44;;;;;;;;;;;2.40;99.90;;;;;;4971202;28;20009;-77
2023/01/31 09:09:12;;;;;;;;;;;4.50;99.90;;;;;;4988183;28;19944;-78
2023/01/31 09:11:38;;;;;;;;;;;2.50;99.90;;;;;;4970934;28;19985;-78
2023/01/31 09:14:10;;;;;;;;;;;2.50;99.90;;;;;;4975306;28;19914;-78
2023/01/31 09:16:41;;;;;;;;;;;2.50;99.90;;;;;;4953035;28;19940;-78
2023/01/31 09:19:07;;;;;;;;;;;2.80;99.90;;;;;;4956544;28;19917;-78
2023/01/31 09:21:37;;;;;;;;;;;3.90;99.90;;;;;;4954599;28;19910;-78
2023/01/31 09:24:07;;;;;;;;;;;1.80;99.90;;;;;;4966251;28;19914;-78
2023/01/31 09:26:58;;;;;;;;;;;2.60;99.90;;;;;;4957668;28;19914;-78
2023/01/31 09:29:29;;;;;;;;;;;0.10;99.90;;;;;;4957553;28;19917;-78
2023/01/31 09:31:57;;;;;;;;;;;1.80;99.90;;;;;;4973848;28;19921;-78
2023/01/31 09:34:25;;;;;;;;;;;2.90;99.90;;;;;;4961379;28;19918;-79
2023/01/31 09:36:56;;;;;;;;;;;1.00;99.90;;;;;;4963133;28;19940;-79
2023/01/31 09:39:26;;;;;;;;;;;1.10;99.90;;;;;;4964495;28;19894;-78
2023/01/31 09:41:59;;;;;;;;;;;3.10;99.90;;;;;;4963966;28;19912;-78
2023/01/31 09:44:42;;;;;;;;;;;1.30;99.90;;;;;;4978847;28;19944;-78
2023/01/31 09:47:08;;;;;;;;;;;3.40;99.90;;;;;;4998048;22;19925;-78
2023/01/31 09:52:36;;;;;;;;;;;3.80;99.90;;;;;;5054360;28;19924;-75
2023/01/31 09:55:02;;;;;;;;;;;3.80;99.90;;;;;;5039627;28;19920;-76
2023/01/31 09:57:31;;;;;;;;;;;3.80;99.90;;;;;;5062159;28;19908;-78
2023/01/31 10:00:01;;;;;;;;;;;3.80;99.90;;;;;;5064810;28;19947;-78
2023/01/31 10:03:01;;;;;;;;;;;1.40;99.90;;;;;;5064552;28;19916;-76
2023/01/31 10:05:29;;;;;;;;;;;3.70;99.90;;;;;;5022110;28;19909;-77
2023/01/31 10:08:14;;;;;;;;;;;3.70;99.90;;;;;;5003804;28;19952;-77
2023/01/31 10:10:51;;;;;;;;;;;1.50;99.90;;;;;;5005414;28;19933;-77
2023/01/31 10:13:38;;;;;;;;;;;3.50;99.90;;;;;;5005076;28;19932;-78
2023/01/31 10:16:10;;;;;;;;;;;3.40;99.90;;;;;;5019771;28;19951;-77
2023/01/31 10:18:40;;;;;;;;;;;3.20;99.90;;;;;;5020339;28;19905;-77
2023/01/31 10:21:12;;;;;;;;;;;3.10;99.90;;;;;;4985217;28;19918;-76
2023/01/31 10:23:39;;;;;;;;;;;3.00;99.90;;;;;;4999493;28;19906;-77
2023/01/31 10:26:31;;;;;;;;;;;3.10;99.90;;;;;;5000060;28;20577;-78
2023/01/31 10:29:15;;;;;;;;;;;3.20;99.90;;;;;;4982324;28;19947;-77
2023/01/31 10:34:37;;;;;;;;;;;3.30;99.90;;;;;;4913923;29;19982;-78
2023/01/31 10:37:24;;;;;;;;;;;3.80;99.90;;;;;;4905188;29;19911;-78
2023/01/31 10:40:00;;;;;;;;;;;2.90;99.90;;;;;;4901681;29;19911;-78
2023/01/31 10:42:39;;;;;;;;;;;3.00;99.90;;;;;;4910317;29;19959;-78
2023/01/31 10:45:30;;;;;;;;;;;3.00;99.90;;;;;;4938977;29;19950;-78
2023/01/31 10:48:02;;;;;;;;;;;3.00;99.90;;;;;;4883746;29;19924;-78
2023/01/31 10:50:46;;;;;;;;;;;2.90;99.90;;;;;;4866162;29;19951;-77
2023/01/31 10:53:29;;;;;;;;;;;3.50;99.90;;;;;;4865952;29;19916;-80
2023/01/31 10:55:55;;;;;;;;;;;3.80;99.90;;;;;;4866674;29;20819;-76
2023/01/31 10:58:24;;;;;;;;;;;3.60;99.90;;;;;;4866489;29;19914;-77
2023/01/31 11:00:51;;;;;;;;;;;3.30;99.90;;;;;;4862139;29;19912;-75
2023/01/31 11:03:22;;;;;;;;;;;1.60;99.90;;;;;;4842897;29;19912;-77
2023/01/31 11:05:50;;;;;;;;;;;3.30;99.90;;;;;;4857950;29;19908;-74
2023/01/31 11:08:36;;;;;;;;;;;3.30;99.90;;;;;;4839628;29;19996;-76
2023/01/31 11:11:10;;;;;;;;;;;3.30;99.90;;;;;;4887586;29;19911;-74
2023/01/31 11:13:36;;;;;;;;;;;3.20;99.90;;;;;;4915822;29;19915;-75
2023/01/31 11:16:03;;;;;;;;;;;6.20;99.90;;;;;;4900616;29;19957;-76
2023/01/31 11:18:39;;;;;;;;;;;3.10;99.90;;;;;;4901668;29;19967;-76
2023/01/31 11:21:06;;;;;;;;;;;3.20;99.90;;;;;;4917616;29;19958;-76
2023/01/31 11:23:35;;;;;;;;;;;2.60;99.90;;;;;;4937260;29;19966;-75
2023/01/31 11:26:01;;;;;;;;;;;3.40;99.90;;;;;;4995932;28;19909;-77
2023/01/31 11:28:37;;;;;;;;;;;3.40;99.90;;;;;;5008820;28;19948;-76
2023/01/31 11:31:05;;;;;;;;;;;4.20;99.90;;;;;;5036065;28;19912;-76
2023/01/31 11:33:46;;;;;;;;;;;3.40;99.90;;;;;;5017328;28;19913;-77
2023/01/31 11:36:21;;;;;;;;;;;3.50;99.90;;;;;;5033956;28;19928;-78
2023/01/31 11:38:51;;;;;;;;;;;3.70;99.90;;;;;;5034818;28;19909;-77
2023/01/31 11:41:27;;;;;;;;;;;3.70;99.90;;;;;;5035036;28;19915;-77
2023/01/31 11:44:06;;;;;;;;;;;3.50;99.90;;;;;;5018487;28;19909;-77
2023/01/31 11:46:41;;;;;;;;;;;5.30;99.90;;;;;;5016188;28;19928;-76
2023/01/31 11:49:12;;;;;;;;;;;3.20;99.90;;;;;;5033870;28;19909;-78
2023/01/31 11:51:39;;;;;;;;;;;2.20;99.90;;;;;;5017923;28;19989;-78
2023/01/31 11:54:05;;;;;;;;;;;3.20;99.90;;;;;;5035800;28;19905;-76
2023/01/31 11:56:34;;;;;;;;;;;1.60;99.90;;;;;;5017282;28;19951;-77
2023/01/31 11:59:09;;;;;;;;;;;3.20;99.90;;;;;;5035535;28;19909;-77
2023/01/31 12:01:44;;;;;;;;;;;3.20;99.90;;;;;;5052997;28;19916;-77
2023/01/31 12:04:14;;;;;;;;;;;3.20;99.90;;;;;;5037129;28;19908;-77
2023/01/31 12:06:40;;;;;;;;;;;-0.10;99.90;;;;;;5036591;28;19944;-78
2023/01/31 12:09:23;;;;;;;;;;;3.20;99.90;;;;;;5035682;28;19924;-78
2023/01/31 12:11:55;;;;;;;;;;;3.30;99.90;;;;;;5037721;28;19947;-80
2023/01/31 12:14:25;;;;;;;;;;;2.70;99.90;;;;;;5039529;28;19904;-77
2023/01/31 12:16:58;;;;;;;;;;;0.50;99.90;;;;;;5057644;28;20551;-77
2023/01/31 12:19:32;;;;;;;;;;;3.30;99.90;;;;;;5032969;28;19912;-76
2023/01/31 12:22:06;;;;;;;;;;;3.50;99.90;;;;;;5015397;28;19917;-77
2023/01/31 12:24:36;;;;;;;;;;;3.60;99.90;;;;;;5039298;28;19932;-78
2023/01/31 12:27:04;;;;;;;;;;;3.80;99.90;;;;;;5032890;28;19921;-77
2023/01/31 12:29:45;;;;;;;;;;;3.70;99.90;;;;;;5032668;28;20127;-77
2023/01/31 12:32:34;;;;;;;;;;;3.90;99.90;;;;;;5034697;28;19912;-77
2023/01/31 12:35:18;;;;;;;;;;;3.90;99.90;;;;;;5036676;28;19920;-78
2023/01/31 12:37:44;;;;;;;;;;;4.00;99.90;;;;;;5036611;28;19944;-78
2023/01/31 12:40:28;;;;;;;;;;;4.50;99.90;;;;;;5059394;28;19916;-77
2023/01/31 12:43:01;;;;;;;;;;;3.90;99.90;;;;;;5059672;28;19912;-78
2023/01/31 12:45:36;;;;;;;;;;;4.00;99.90;;;;;;5059912;28;20391;-78
2023/01/31 12:48:25;;;;;;;;;;;4.00;99.90;;;;;;5039944;28;19993;-77
2023/01/31 12:50:56;;;;;;;;;;;3.80;99.90;;;;;;5026472;28;19922;-77
2023/01/31 12:53:37;;;;;;;;;;;3.70;99.90;;;;;;5015670;28;19941;-75
2023/01/31 12:56:21;;;;;;;;;;;1.50;99.90;;;;;;5014093;28;19921;-77
2023/01/31 12:59:12;;;;;;;;;;;3.40;99.90;;;;;;5016046;28;19905;-76
2023/01/31 13:01:54;;;;;;;;;;;3.30;99.90;;;;;;5009261;28;19905;-77
2023/01/31 13:04:29;;;;;;;;;;;3.10;99.90;;;;;;5016896;28;19917;-77
2023/01/31 13:07:10;;;;;;;;;;;3.20;99.90;;;;;;5017391;28;19936;-79
2023/01/31 13:09:48;;;;;;;;;;;3.30;99.90;;;;;;4991268;28;20004;-78
2023/01/31 13:12:15;;;;;;;;;;;3.30;99.90;;;;;;4989838;28;19917;-79
2023/01/31 13:14:42;;;;;;;;;;;4.00;99.90;;;;;;4993287;28;19925;-77
2023/01/31 13:17:28;;;;;;;;;;;3.40;99.90;;;;;;4975747;28;19913;-80
2023/01/31 13:19:56;;;;;;;;;;;6.30;99.90;;;;;;4969788;23;20012;-78
2023/01/31 13:22:57;;;;;;;;;;;3.60;99.90;;;;;;4957597;28;19914;-79
2023/01/31 13:25:29;;;;;;;;;;;3.40;99.90;;;;;;4916002;29;20358;-78
2023/01/31 13:28:04;;;;;;;;;;;3.40;99.90;;;;;;4917281;29;19918;-78
2023/01/31 13:30:48;;;;;;;;;;;3.30;99.90;;;;;;4927844;29;19930;-78
2023/01/31 13:33:42;;;;;;;;;;;;;;;;;;;;;
2023/01/31 13:39:00;;;;;;;;;;;3.10;99.90;;;;;;4888464;28;19920;-78
2023/01/31 13:41:28;;;;;;;;;;;3.20;99.90;;;;;;4873506;29;19911;-77
2023/01/31 13:43:55;;;;;;;;;;;3.00;99.90;;;;;;4879405;29;20056;-77
2023/01/31 13:46:26;;;;;;;;;;;3.10;99.90;;;;;;4877534;29;19974;-77
2023/01/31 13:48:55;;;;;;;;;;;2.90;99.90;;;;;;4894561;29;19920;-80
2023/01/31 13:51:24;;;;;;;;;;;2.90;99.90;;;;;;4880862;29;19923;-79
2023/01/31 13:53:57;;;;;;;;;;;2.90;99.90;;;;;;4894900;29;19907;-79
2023/01/31 13:56:25;;;;;;;;;;;3.00;99.90;;;;;;4895970;29;19914;-77
2023/01/31 13:58:54;;;;;;;;;;;2.90;99.90;;;;;;4882590;29;19919;-78
2023/01/31 14:01:43;;;;;;;;;;;2.80;99.90;;;;;;4911975;29;20595;-79
2023/01/31 14:04:16;;;;;;;;;;;2.80;99.90;;;;;;4897677;29;19914;-78
2023/01/31 14:06:55;;;;;;;;;;;2.90;99.90;;;;;;4908743;29;19918;-77
2023/01/31 14:09:28;;;;;;;;;;;2.90;99.90;;;;;;4896669;29;19971;-78
2023/01/31 14:12:00;;;;;;;;;;;0.40;99.90;;;;;;4894623;29;19907;-78
2023/01/31 14:14:51;;;;;;;;;;;2.80;99.90;;;;;;4892367;29;19907;-78
2023/01/31 14:17:42;;;;;;;;;;;1.90;99.90;;;;;;4855384;29;19912;-78
2023/01/31 14:20:31;;;;;;;;;;;2.50;99.90;;;;;;4865273;29;20685;-78
2023/01/31 14:23:19;;;;;;;;;;;2.50;99.90;;;;;;4840311;29;19938;-77
2023/01/31 14:25:50;;;;;;;;;;;1.70;99.90;;;;;;4836539;29;19976;-77
2023/01/31 14:28:16;;;;;;;;;;;2.30;99.90;;;;;;4840251;29;20137;-78
2023/01/31 14:30:42;;;;;;;;;;;4.40;99.90;;;;;;4840711;29;19913;-79
2023/01/31 14:33:11;;;;;;;;;;;2.30;99.90;;;;;;4840061;29;20045;-78
2023/01/31 14:35:49;;;;;;;;;;;2.40;99.90;;;;;;4837548;29;19924;-78
2023/01/31 14:38:35;;;;;;;;;;;4.40;99.90;;;;;;4841111;29;19908;-78
2023/01/31 14:41:12;;;;;;;;;;;2.30;99.90;;;;;;4840961;29;20792;-78
2023/01/31 14:43:58;;;;;;;;;;;2.30;99.90;;;;;;4840385;29;19912;-79
2023/01/31 14:46:41;;;;;;;;;;;2.30;99.90;;;;;;4841088;29;19917;-78
2023/01/31 14:49:29;;;;;;;;;;;2.60;99.90;;;;;;4828517;29;19920;-78
2023/01/31 14:52:09;;;;;;;;;;;3.20;99.90;;;;;;4824325;29;19951;-78
2023/01/31 14:54:44;;;;;;;;;;;3.90;99.90;;;;;;4869713;29;19915;-78
2023/01/31 14:57:16;;;;;;;;;;;3.40;99.90;;;;;;4900630;29;19911;-77
2023/01/31 14:59:45;;;;;;;;;;;4.50;99.90;;;;;;4921321;29;19910;-77
2023/01/31 15:02:29;;;;;;;;;;;4.50;99.90;;;;;;4957486;29;19910;-77
2023/01/31 15:04:58;;;;;;;;;;;4.30;99.90;;;;;;4957288;29;19910;-78
2023/01/31 15:07:24;;;;;;;;;;;4.10;99.90;;;;;;4957269;28;19925;-76
2023/01/31 15:09:54;;;;;;;;;;;3.80;99.90;;;;;;4955803;28;19910;-77
2023/01/31 15:12:38;;;;;;;;;;;3.60;99.90;;;;;;4956649;29;19910;-79
2023/01/31 15:15:08;;;;;;;;;;;3.50;99.90;;;;;;4960626;29;19918;-77
2023/01/31 15:17:35;;;;;;;;;;;3.40;99.90;;;;;;4959804;29;19915;-78
2023/01/31 15:20:19;;;;;;;;;;;3.40;99.90;;;;;;4959797;29;19929;-78
2023/01/31 15:22:45;;;;;;;;;;;2.50;99.90;;;;;;4942667;29;19917;-78